sensor_id;sensor_type;location;lat;lon;timestamp;temperature;humidity
16635;DHT22;8431;52.458;9.998;2023-03-01T00:01:01;-3.70;99.90
16635;DHT22;8431;52.458;9.998;2023-03-01T00:03:28;-3.80;99.90
16635;DHT22;8431;52.458;9.998;2023-03-01T00:05:56;-3.80;99.90
16635;DHT22;8431;52.458;9.998;2023-03-01T00:08:24;-3.90;99.90
16635;DHT22;8431;52.458;9.998;2023-03-01T00:11:00;-3.90;99.90
16635;DHT22;8431;52.458;9.998;2023-03-01T00:13:28;-3.80;99.90
16635;DHT22;8431;52.458;9.998;2023-03-01T00:15:55;-3.70;99.90
16635;DHT22;8431;52.458;9.998;2023-03-01T00:18:22;-3.70;99.90
16635;DHT22;8431;52.458;9.998;2023-03-01T00:20:50;-3.80;99.90
16635;DHT22;8431;52.458;9.998;2023-03-01T00:23:17;-3.90;99.90
16635;DHT22;8431;52.458;9.998;2023-03-01T00:25:46;-3.80;99.90
16635;DHT22;8431;52.458;9.998;2023-03-01T00:28:13;-3.80;99.90
16635;DHT22;8431;52.458;9.998;2023-03-01T00:30:41;-3.90;99.90
16635;DHT22;8431;52.458;9.998;2023-03-01T00:33:09;-3.90;99.90
16635;DHT22;8431;52.458;9.998;2023-03-01T00:35:36;-4.00;99.90
16635;DHT22;8431;52.458;9.998;2023-03-01T00:38:03;-4.00;99.90
16635;DHT22;8431;52.458;9.998;2023-03-01T00:40:33;-4.00;99.90
16635;DHT22;8431;52.458;9.998;2023-03-01T00:43:02;-4.00;99.90
16635;DHT22;8431;52.458;9.998;2023-03-01T00:45:29;-4.10;99.90
16635;DHT22;8431;52.458;9.998;2023-03-01T00:47:57;-4.10;99.90
16635;DHT22;8431;52.458;9.998;2023-03-01T00:50:25;-4.20;99.90
16635;DHT22;8431;52.458;9.998;2023-03-01T00:52:53;-4.20;99.90
16635;DHT22;8431;52.458;9.998;2023-03-01T00:55:20;-4.20;99.90
16635;DHT22;8431;52.458;9.998;2023-03-01T00:57:48;-4.20;99.90
16635;DHT22;8431;52.458;9.998;2023-03-01T01:00:17;-4.30;99.90
16635;DHT22;8431;52.458;9.998;2023-03-01T01:02:45;-4.20;99.90
16635;DHT22;8431;52.458;9.998;2023-03-01T01:05:13;-4.10;99.90
16635;DHT22;8431;52.458;9.998;2023-03-01T01:07:46;-4.00;99.90
16635;DHT22;8431;52.458;9.998;2023-03-01T01:10:13;-4.00;99.90
16635;DHT22;8431;52.458;9.998;2023-03-01T01:12:43;-4.10;99.90
16635;DHT22;8431;52.458;9.998;2023-03-01T01:15:10;-4.20;99.90
16635;DHT22;8431;52.458;9.998;2023-03-01T01:17:41;-4.20;99.90
16635;DHT22;8431;52.458;9.998;2023-03-01T01:20:09;-4.30;99.90
16635;DHT22;8431;52.458;9.998;2023-03-01T01:22:36;-4.20;99.90
16635;DHT22;8431;52.458;9.998;2023-03-01T01:25:03;-4.20;99.90
16635;DHT22;8431;52.458;9.998;2023-03-01T01:27:31;-4.30;99.90
16635;DHT22;8431;52.458;9.998;2023-03-01T01:29:58;-4.30;99.90
16635;DHT22;8431;52.458;9.998;2023-03-01T01:32:25;-4.30;99.90
16635;DHT22;8431;52.458;9.998;2023-03-01T01:34:53;-4.30;99.90
16635;DHT22;8431;52.458;9.998;2023-03-01T01:37:20;-4.30;99.90
16635;DHT22;8431;52.458;9.998;2023-03-01T01:39:48;-4.40;99.90
16635;DHT22;8431;52.458;9.998;2023-03-01T01:42:16;-4.40;99.90
16635;DHT22;8431;52.458;9.998;2023-03-01T01:44:46;-4.50;99.90
16635;DHT22;8431;52.458;9.998;2023-03-01T01:47:16;-4.60;99.90
16635;DHT22;8431;52.458;9.998;2023-03-01T01:49:47;-4.60;99.90
16635;DHT22;8431;52.458;9.998;2023-03-01T01:52:20;-4.60;99.90
16635;DHT22;8431;52.458;9.998;2023-03-01T01:54:50;-4.60;99.90
16635;DHT22;8431;52.458;9.998;2023-03-01T01:57:21;-4.60;99.90
16635;DHT22;8431;52.458;9.998;2023-03-01T01:59:50;-4.60;99.90
16635;DHT22;8431;52.458;9.998;2023-03-01T02:02:19;-4.60;99.90
16635;DHT22;8431;52.458;9.998;2023-03-01T02:04:46;-4.50;99.90
16635;DHT22;8431;52.458;9.998;2023-03-01T02:07:16;-4.40;99.90
16635;DHT22;8431;52.458;9.998;2023-03-01T02:09:47;-4.50;99.90
16635;DHT22;8431;52.458;9.998;2023-03-01T02:12:15;-4.60;99.90
16635;DHT22;8431;52.458;9.998;2023-03-01T02:14:43;-4.60;99.90
16635;DHT22;8431;52.458;9.998;2023-03-01T02:17:11;-4.70;99.90
16635;DHT22;8431;52.458;9.998;2023-03-01T02:19:47;-4.70;99.90
16635;DHT22;8431;52.458;9.998;2023-03-01T02:22:22;-4.70;99.90
16635;DHT22;8431;52.458;9.998;2023-03-01T02:25:01;-4.80;99.90
16635;DHT22;8431;52.458;9.998;2023-03-01T02:27:38;-4.80;99.90
16635;DHT22;8431;52.458;9.998;2023-03-01T02:30:09;-4.80;99.90
16635;DHT22;8431;52.458;9.998;2023-03-01T02:32:39;-4.80;99.90
16635;DHT22;8431;52.458;9.998;2023-03-01T02:35:09;-4.80;99.90
16635;DHT22;8431;52.458;9.998;2023-03-01T02:37:37;-4.90;99.90
16635;DHT22;8431;52.458;9.998;2023-03-01T02:40:10;-4.90;99.90
16635;DHT22;8431;52.458;9.998;2023-03-01T02:42:43;-4.90;99.90
16635;DHT22;8431;52.458;9.998;2023-03-01T02:45:14;-4.90;99.90
16635;DHT22;8431;52.458;9.998;2023-03-01T02:47:41;-4.90;99.90
16635;DHT22;8431;52.458;9.998;2023-03-01T02:50:22;-4.80;99.90
16635;DHT22;8431;52.458;9.998;2023-03-01T02:52:56;-4.90;99.90
16635;DHT22;8431;52.458;9.998;2023-03-01T02:55:25;-4.90;99.90
16635;DHT22;8431;52.458;9.998;2023-03-01T02:57:53;-4.90;99.90
16635;DHT22;8431;52.458;9.998;2023-03-01T03:00:26;-4.90;99.90
16635;DHT22;8431;52.458;9.998;2023-03-01T03:02:54;-4.90;99.90
16635;DHT22;8431;52.458;9.998;2023-03-01T03:05:24;-5.00;99.90
16635;DHT22;8431;52.458;9.998;2023-03-01T03:07:52;-5.00;99.90
16635;DHT22;8431;52.458;9.998;2023-03-01T03:10:21;-5.00;99.90
16635;DHT22;8431;52.458;9.998;2023-03-01T03:12:53;-4.90;99.90
16635;DHT22;8431;52.458;9.998;2023-03-01T03:15:22;-4.90;99.90
16635;DHT22;8431;52.458;9.998;2023-03-01T03:17:50;-4.90;99.90
16635;DHT22;8431;52.458;9.998;2023-03-01T03:20:19;-4.90;99.90
16635;DHT22;8431;52.458;9.998;2023-03-01T03:22:48;-4.90;99.90
16635;DHT22;8431;52.458;9.998;2023-03-01T03:25:16;-5.00;99.90
16635;DHT22;8431;52.458;9.998;2023-03-01T03:27:46;-5.10;99.90
16635;DHT22;8431;52.458;9.998;2023-03-01T03:30:16;-5.10;99.90
16635;DHT22;8431;52.458;9.998;2023-03-01T03:32:46;-5.20;99.90
16635;DHT22;8431;52.458;9.998;2023-03-01T03:35:19;-5.20;99.90
16635;DHT22;8431;52.458;9.998;2023-03-01T03:37:47;-5.20;99.90
16635;DHT22;8431;52.458;9.998;2023-03-01T03:40:29;-5.20;99.90
16635;DHT22;8431;52.458;9.998;2023-03-01T03:42:58;-5.30;99.90
16635;DHT22;8431;52.458;9.998;2023-03-01T03:45:25;-5.30;99.90
16635;DHT22;8431;52.458;9.998;2023-03-01T03:47:53;-5.30;99.90
16635;DHT22;8431;52.458;9.998;2023-03-01T03:50:20;-5.40;99.90
16635;DHT22;8431;52.458;9.998;2023-03-01T03:52:47;-5.40;99.90
16635;DHT22;8431;52.458;9.998;2023-03-01T03:55:15;-5.40;99.90
16635;DHT22;8431;52.458;9.998;2023-03-01T03:57:46;-5.40;99.90
16635;DHT22;8431;52.458;9.998;2023-03-01T04:00:18;-5.40;99.90
16635;DHT22;8431;52.458;9.998;2023-03-01T04:02:45;-5.40;99.90
16635;DHT22;8431;52.458;9.998;2023-03-01T04:05:17;-5.30;99.90
16635;DHT22;8431;52.458;9.998;2023-03-01T04:07:45;-5.20;99.90
16635;DHT22;8431;52.458;9.998;2023-03-01T04:10:14;-5.20;99.90
16635;DHT22;8431;52.458;9.998;2023-03-01T04:12:42;-5.10;99.90
16635;DHT22;8431;52.458;9.998;2023-03-01T04:15:11;-5.00;99.90
16635;DHT22;8431;52.458;9.998;2023-03-01T04:17:41;-5.00;99.90
16635;DHT22;8431;52.458;9.998;2023-03-01T04:20:10;-5.10;99.90
16635;DHT22;8431;52.458;9.998;2023-03-01T04:22:39;-5.20;99.90
16635;DHT22;8431;52.458;9.998;2023-03-01T04:25:07;-5.30;99.90
16635;DHT22;8431;52.458;9.998;2023-03-01T04:27:35;-5.30;99.90
16635;DHT22;8431;52.458;9.998;2023-03-01T04:30:03;-5.30;99.90
16635;DHT22;8431;52.458;9.998;2023-03-01T04:32:31;-5.20;99.90
16635;DHT22;8431;52.458;9.998;2023-03-01T04:34:58;-5.10;99.90
16635;DHT22;8431;52.458;9.998;2023-03-01T04:37:25;-5.10;99.90
16635;DHT22;8431;52.458;9.998;2023-03-01T04:39:53;-4.90;99.90
16635;DHT22;8431;52.458;9.998;2023-03-01T04:42:21;-4.90;99.90
16635;DHT22;8431;52.458;9.998;2023-03-01T04:44:48;-4.90;99.90
16635;DHT22;8431;52.458;9.998;2023-03-01T04:47:17;-4.90;99.90
16635;DHT22;8431;52.458;9.998;2023-03-01T04:49:44;-5.10;99.90
16635;DHT22;8431;52.458;9.998;2023-03-01T04:52:11;-5.10;99.90
16635;DHT22;8431;52.458;9.998;2023-03-01T04:54:38;-5.30;99.90
16635;DHT22;8431;52.458;9.998;2023-03-01T04:57:06;-5.30;99.90
16635;DHT22;8431;52.458;9.998;2023-03-01T04:59:33;-5.40;99.90
16635;DHT22;8431;52.458;9.998;2023-03-01T05:02:01;-5.40;99.90
16635;DHT22;8431;52.458;9.998;2023-03-01T05:04:28;-5.50;99.90
16635;DHT22;8431;52.458;9.998;2023-03-01T05:06:57;-5.50;99.90
16635;DHT22;8431;52.458;9.998;2023-03-01T05:09:24;-5.50;99.90
16635;DHT22;8431;52.458;9.998;2023-03-01T05:11:51;-5.60;99.90
16635;DHT22;8431;52.458;9.998;2023-03-01T05:14:20;-5.60;99.90
16635;DHT22;8431;52.458;9.998;2023-03-01T05:16:47;-5.60;99.90
16635;DHT22;8431;52.458;9.998;2023-03-01T05:19:14;-5.60;99.90
16635;DHT22;8431;52.458;9.998;2023-03-01T05:21:42;-5.60;99.90
16635;DHT22;8431;52.458;9.998;2023-03-01T05:24:23;-5.70;99.90
16635;DHT22;8431;52.458;9.998;2023-03-01T05:26:50;-5.70;99.90
16635;DHT22;8431;52.458;9.998;2023-03-01T05:29:20;-5.80;99.90
16635;DHT22;8431;52.458;9.998;2023-03-01T05:31:51;-5.80;99.90
16635;DHT22;8431;52.458;9.998;2023-03-01T05:34:19;-5.80;99.90
16635;DHT22;8431;52.458;9.998;2023-03-01T05:36:48;-5.80;99.90
16635;DHT22;8431;52.458;9.998;2023-03-01T05:39:19;-5.80;99.90
16635;DHT22;8431;52.458;9.998;2023-03-01T05:41:47;-5.80;99.90
16635;DHT22;8431;52.458;9.998;2023-03-01T05:44:15;-5.90;99.90
16635;DHT22;8431;52.458;9.998;2023-03-01T05:46:44;-5.80;99.90
16635;DHT22;8431;52.458;9.998;2023-03-01T05:49:11;-5.90;99.90
16635;DHT22;8431;52.458;9.998;2023-03-01T05:51:39;-5.80;99.90
16635;DHT22;8431;52.458;9.998;2023-03-01T05:54:10;-5.90;99.90
16635;DHT22;8431;52.458;9.998;2023-03-01T05:56:40;-5.90;99.90
16635;DHT22;8431;52.458;9.998;2023-03-01T05:59:09;-5.90;99.90
16635;DHT22;8431;52.458;9.998;2023-03-01T06:01:36;-5.80;99.90
16635;DHT22;8431;52.458;9.998;2023-03-01T06:04:05;-5.80;99.90
16635;DHT22;8431;52.458;9.998;2023-03-01T06:06:34;-5.80;99.90
16635;DHT22;8431;52.458;9.998;2023-03-01T06:09:03;-5.80;99.90
16635;DHT22;8431;52.458;9.998;2023-03-01T06:11:30;-5.80;99.90
16635;DHT22;8431;52.458;9.998;2023-03-01T06:13:57;-5.80;99.90
16635;DHT22;8431;52.458;9.998;2023-03-01T06:16:24;-5.80;99.90
16635;DHT22;8431;52.458;9.998;2023-03-01T06:18:51;-5.80;99.90
16635;DHT22;8431;52.458;9.998;2023-03-01T06:21:20;-5.80;99.90
16635;DHT22;8431;52.458;9.998;2023-03-01T06:23:47;-5.80;99.90
16635;DHT22;8431;52.458;9.998;2023-03-01T06:26:18;-5.80;99.90
16635;DHT22;8431;52.458;9.998;2023-03-01T06:28:45;-5.80;99.90
16635;DHT22;8431;52.458;9.998;2023-03-01T06:31:12;-5.80;99.90
16635;DHT22;8431;52.458;9.998;2023-03-01T06:33:39;-5.70;99.90
16635;DHT22;8431;52.458;9.998;2023-03-01T06:36:07;-5.70;99.90
16635;DHT22;8431;52.458;9.998;2023-03-01T06:38:37;-5.70;99.90
16635;DHT22;8431;52.458;9.998;2023-03-01T06:41:06;-5.60;99.90
16635;DHT22;8431;52.458;9.998;2023-03-01T06:43:33;-5.50;99.90
16635;DHT22;8431;52.458;9.998;2023-03-01T06:46:02;-5.50;99.90
16635;DHT22;8431;52.458;9.998;2023-03-01T06:48:30;-5.40;99.90
16635;DHT22;8431;52.458;9.998;2023-03-01T06:50:58;-5.20;99.90
16635;DHT22;8431;52.458;9.998;2023-03-01T06:53:26;-5.20;99.90
16635;DHT22;8431;52.458;9.998;2023-03-01T06:55:56;-5.20;99.90
16635;DHT22;8431;52.458;9.998;2023-03-01T06:58:23;-5.20;99.90
16635;DHT22;8431;52.458;9.998;2023-03-01T07:00:50;-5.20;99.90
16635;DHT22;8431;52.458;9.998;2023-03-01T07:03:17;-5.10;99.90
16635;DHT22;8431;52.458;9.998;2023-03-01T07:05:44;-5.00;99.90
16635;DHT22;8431;52.458;9.998;2023-03-01T07:08:11;-4.90;99.90
16635;DHT22;8431;52.458;9.998;2023-03-01T07:10:38;-4.80;99.90
16635;DHT22;8431;52.458;9.998;2023-03-01T07:13:06;-4.60;99.90
16635;DHT22;8431;52.458;9.998;2023-03-01T07:15:33;-4.60;99.90
16635;DHT22;8431;52.458;9.998;2023-03-01T07:18:00;-4.50;99.90
16635;DHT22;8431;52.458;9.998;2023-03-01T07:20:27;-4.40;99.90
16635;DHT22;8431;52.458;9.998;2023-03-01T07:22:55;-4.40;99.90
16635;DHT22;8431;52.458;9.998;2023-03-01T07:25:24;-4.30;99.90
16635;DHT22;8431;52.458;9.998;2023-03-01T07:28:11;-4.20;99.90
16635;DHT22;8431;52.458;9.998;2023-03-01T07:31:00;-4.00;99.90
16635;DHT22;8431;52.458;9.998;2023-03-01T07:33:38;-3.90;99.90
16635;DHT22;8431;52.458;9.998;2023-03-01T07:36:06;-3.80;99.90
16635;DHT22;8431;52.458;9.998;2023-03-01T07:38:33;-3.70;99.90
16635;DHT22;8431;52.458;9.998;2023-03-01T07:41:02;-3.60;99.90
16635;DHT22;8431;52.458;9.998;2023-03-01T07:43:31;-3.50;99.90
16635;DHT22;8431;52.458;9.998;2023-03-01T07:45:59;-3.40;99.90
16635;DHT22;8431;52.458;9.998;2023-03-01T07:48:27;-3.30;99.90
16635;DHT22;8431;52.458;9.998;2023-03-01T07:50:54;-3.20;99.90
16635;DHT22;8431;52.458;9.998;2023-03-01T07:53:24;-3.10;99.90
16635;DHT22;8431;52.458;9.998;2023-03-01T07:56:00;-3.00;99.90
16635;DHT22;8431;52.458;9.998;2023-03-01T07:58:27;-2.90;99.90
16635;DHT22;8431;52.458;9.998;2023-03-01T08:00:56;-2.80;99.90
16635;DHT22;8431;52.458;9.998;2023-03-01T08:03:27;-2.60;99.90
16635;DHT22;8431;52.458;9.998;2023-03-01T08:05:54;-2.40;99.90
16635;DHT22;8431;52.458;9.998;2023-03-01T08:08:21;-2.20;99.90
16635;DHT22;8431;52.458;9.998;2023-03-01T08:10:48;-2.00;99.90
16635;DHT22;8431;52.458;9.998;2023-03-01T08:13:15;-1.90;99.90
16635;DHT22;8431;52.458;9.998;2023-03-01T08:15:48;-1.80;99.90
16635;DHT22;8431;52.458;9.998;2023-03-01T08:18:17;-1.70;99.90
16635;DHT22;8431;52.458;9.998;2023-03-01T08:20:44;-1.70;99.90
16635;DHT22;8431;52.458;9.998;2023-03-01T08:23:12;-1.50;99.90
16635;DHT22;8431;52.458;9.998;2023-03-01T08:25:39;-1.40;99.90
16635;DHT22;8431;52.458;9.998;2023-03-01T08:28:06;-1.30;99.90
16635;DHT22;8431;52.458;9.998;2023-03-01T08:30:34;-1.30;99.90
16635;DHT22;8431;52.458;9.998;2023-03-01T08:33:01;-1.20;99.90
16635;DHT22;8431;52.458;9.998;2023-03-01T08:35:29;-1.20;99.90
16635;DHT22;8431;52.458;9.998;2023-03-01T08:37:56;-1.10;99.90
16635;DHT22;8431;52.458;9.998;2023-03-01T08:40:23;-1.00;99.90
16635;DHT22;8431;52.458;9.998;2023-03-01T08:42:50;-0.90;99.90
16635;DHT22;8431;52.458;9.998;2023-03-01T08:45:17;-0.80;99.90
16635;DHT22;8431;52.458;9.998;2023-03-01T08:47:45;-0.60;99.90
16635;DHT22;8431;52.458;9.998;2023-03-01T08:50:12;-0.60;99.90
16635;DHT22;8431;52.458;9.998;2023-03-01T08:52:40;-0.60;99.90
16635;DHT22;8431;52.458;9.998;2023-03-01T08:55:08;-0.50;99.90
16635;DHT22;8431;52.458;9.998;2023-03-01T08:57:35;-0.40;99.90
16635;DHT22;8431;52.458;9.998;2023-03-01T09:00:03;-0.30;99.90
16635;DHT22;8431;52.458;9.998;2023-03-01T09:02:34;-0.20;99.90
16635;DHT22;8431;52.458;9.998;2023-03-01T09:05:01;-0.10;99.90
16635;DHT22;8431;52.458;9.998;2023-03-01T09:07:28;0.10;99.90
16635;DHT22;8431;52.458;9.998;2023-03-01T09:09:56;0.10;99.90
16635;DHT22;8431;52.458;9.998;2023-03-01T09:12:23;0.20;99.90
16635;DHT22;8431;52.458;9.998;2023-03-01T09:14:51;0.30;99.90
16635;DHT22;8431;52.458;9.998;2023-03-01T09:17:18;0.40;99.90
16635;DHT22;8431;52.458;9.998;2023-03-01T09:19:47;0.50;99.90
16635;DHT22;8431;52.458;9.998;2023-03-01T09:22:14;0.50;99.90
16635;DHT22;8431;52.458;9.998;2023-03-01T09:24:41;0.70;99.90
16635;DHT22;8431;52.458;9.998;2023-03-01T09:27:15;0.80;99.90
16635;DHT22;8431;52.458;9.998;2023-03-01T09:29:44;0.90;99.90
16635;DHT22;8431;52.458;9.998;2023-03-01T09:32:11;1.00;99.90
16635;DHT22;8431;52.458;9.998;2023-03-01T09:34:38;1.00;99.90
16635;DHT22;8431;52.458;9.998;2023-03-01T09:37:19;1.20;99.90
16635;DHT22;8431;52.458;9.998;2023-03-01T09:39:46;1.40;99.90
16635;DHT22;8431;52.458;9.998;2023-03-01T09:42:14;1.30;99.90
16635;DHT22;8431;52.458;9.998;2023-03-01T09:44:46;1.40;99.90
16635;DHT22;8431;52.458;9.998;2023-03-01T09:47:18;1.50;99.90
16635;DHT22;8431;52.458;9.998;2023-03-01T09:49:51;1.50;99.90
16635;DHT22;8431;52.458;9.998;2023-03-01T09:52:25;1.50;99.90
16635;DHT22;8431;52.458;9.998;2023-03-01T09:54:55;1.60;99.90
16635;DHT22;8431;52.458;9.998;2023-03-01T09:57:28;1.70;99.90
16635;DHT22;8431;52.458;9.998;2023-03-01T10:00:23;1.70;99.90
16635;DHT22;8431;52.458;9.998;2023-03-01T10:02:59;1.80;99.90
16635;DHT22;8431;52.458;9.998;2023-03-01T10:05:39;1.80;99.90
16635;DHT22;8431;52.458;9.998;2023-03-01T10:08:24;2.00;99.90
16635;DHT22;8431;52.458;9.998;2023-03-01T10:10:55;2.00;99.90
16635;DHT22;8431;52.458;9.998;2023-03-01T10:13:29;2.20;99.90
16635;DHT22;8431;52.458;9.998;2023-03-01T10:16:03;2.30;99.90
16635;DHT22;8431;52.458;9.998;2023-03-01T10:18:33;2.40;99.90
16635;DHT22;8431;52.458;9.998;2023-03-01T10:21:13;2.40;99.90
16635;DHT22;8431;52.458;9.998;2023-03-01T10:23:41;2.20;99.90
16635;DHT22;8431;52.458;9.998;2023-03-01T10:26:32;2.50;99.90
16635;DHT22;8431;52.458;9.998;2023-03-01T10:29:06;2.60;99.90
16635;DHT22;8431;52.458;9.998;2023-03-01T10:31:39;2.70;99.90
16635;DHT22;8431;52.458;9.998;2023-03-01T10:34:10;2.80;99.90
16635;DHT22;8431;52.458;9.998;2023-03-01T10:36:39;2.80;99.90
16635;DHT22;8431;52.458;9.998;2023-03-01T10:39:13;2.80;99.90
16635;DHT22;8431;52.458;9.998;2023-03-01T10:41:53;2.90;99.90
16635;DHT22;8431;52.458;9.998;2023-03-01T10:44:46;2.80;99.90
16635;DHT22;8431;52.458;9.998;2023-03-01T10:47:16;2.90;99.90
16635;DHT22;8431;52.458;9.998;2023-03-01T10:49:58;3.00;99.90
16635;DHT22;8431;52.458;9.998;2023-03-01T10:52:30;3.20;99.90
16635;DHT22;8431;52.458;9.998;2023-03-01T10:54:59;3.20;99.90
16635;DHT22;8431;52.458;9.998;2023-03-01T10:57:34;3.30;99.90
16635;DHT22;8431;52.458;9.998;2023-03-01T11:00:25;3.50;99.90
16635;DHT22;8431;52.458;9.998;2023-03-01T11:03:09;3.40;99.90
16635;DHT22;8431;52.458;9.998;2023-03-01T11:05:37;3.50;99.90
16635;DHT22;8431;52.458;9.998;2023-03-01T11:08:30;3.50;99.90
16635;DHT22;8431;52.458;9.998;2023-03-01T11:11:18;3.60;99.90
16635;DHT22;8431;52.458;9.998;2023-03-01T11:13:55;3.50;99.90
16635;DHT22;8431;52.458;9.998;2023-03-01T11:16:27;3.50;99.90
16635;DHT22;8431;52.458;9.998;2023-03-01T11:19:01;3.50;99.90
16635;DHT22;8431;52.458;9.998;2023-03-01T11:21:33;3.70;99.90
16635;DHT22;8431;52.458;9.998;2023-03-01T11:24:03;3.80;99.90
16635;DHT22;8431;52.458;9.998;2023-03-01T11:26:37;3.80;99.90
16635;DHT22;8431;52.458;9.998;2023-03-01T11:29:09;3.90;99.90
16635;DHT22;8431;52.458;9.998;2023-03-01T11:31:41;3.90;99.90
16635;DHT22;8431;52.458;9.998;2023-03-01T11:34:11;3.90;99.90
16635;DHT22;8431;52.458;9.998;2023-03-01T11:36:44;4.00;99.90
16635;DHT22;8431;52.458;9.998;2023-03-01T11:39:22;4.00;99.90
16635;DHT22;8431;52.458;9.998;2023-03-01T11:42:02;4.10;99.90
16635;DHT22;8431;52.458;9.998;2023-03-01T11:44:33;4.20;99.90
16635;DHT22;8431;52.458;9.998;2023-03-01T11:47:16;4.00;99.90
16635;DHT22;8431;52.458;9.998;2023-03-01T11:50:06;4.10;99.90
16635;DHT22;8431;52.458;9.998;2023-03-01T11:52:41;4.30;99.90
16635;DHT22;8431;52.458;9.998;2023-03-01T11:55:26;4.30;99.90
16635;DHT22;8431;52.458;9.998;2023-03-01T11:58:19;4.30;99.90
16635;DHT22;8431;52.458;9.998;2023-03-01T12:01:02;4.20;99.90
16635;DHT22;8431;52.458;9.998;2023-03-01T12:06:50;4.50;99.90
16635;DHT22;8431;52.458;9.998;2023-03-01T12:09:47;4.50;99.90
16635;DHT22;8431;52.458;9.998;2023-03-01T12:12:27;4.40;99.90
16635;DHT22;8431;52.458;9.998;2023-03-01T12:18:03;4.50;99.90
16635;DHT22;8431;52.458;9.998;2023-03-01T12:20:36;4.50;99.90
16635;DHT22;8431;52.458;9.998;2023-03-01T12:23:25;4.50;99.90
16635;DHT22;8431;52.458;9.998;2023-03-01T12:26:04;4.40;99.90
16635;DHT22;8431;52.458;9.998;2023-03-01T12:28:57;4.30;99.90
16635;DHT22;8431;52.458;9.998;2023-03-01T12:31:44;4.60;99.90
16635;DHT22;8431;52.458;9.998;2023-03-01T12:34:34;4.60;99.90
16635;DHT22;8431;52.458;9.998;2023-03-01T12:37:24;4.70;99.90
16635;DHT22;8431;52.458;9.998;2023-03-01T12:40:03;4.70;99.90
16635;DHT22;8431;52.458;9.998;2023-03-01T12:42:43;4.60;99.90
16635;DHT22;8431;52.458;9.998;2023-03-01T12:45:33;4.70;99.90
16635;DHT22;8431;52.458;9.998;2023-03-01T12:48:18;4.70;99.90
16635;DHT22;8431;52.458;9.998;2023-03-01T12:50:52;4.70;99.90
16635;DHT22;8431;52.458;9.998;2023-03-01T12:53:24;4.60;99.90
16635;DHT22;8431;52.458;9.998;2023-03-01T12:55:53;4.80;99.90
16635;DHT22;8431;52.458;9.998;2023-03-01T12:58:25;5.00;99.90
16635;DHT22;8431;52.458;9.998;2023-03-01T13:01:09;5.10;99.90
16635;DHT22;8431;52.458;9.998;2023-03-01T13:06:41;5.10;99.90
16635;DHT22;8431;52.458;9.998;2023-03-01T13:09:18;5.20;99.90
16635;DHT22;8431;52.458;9.998;2023-03-01T13:11:46;5.20;99.90
16635;DHT22;8431;52.458;9.998;2023-03-01T13:14:45;5.40;99.90
16635;DHT22;8431;52.458;9.998;2023-03-01T13:17:41;5.30;99.90
16635;DHT22;8431;52.458;9.998;2023-03-01T13:20:15;5.50;99.90
16635;DHT22;8431;52.458;9.998;2023-03-01T13:22:45;5.60;99.90
16635;DHT22;8431;52.458;9.998;2023-03-01T13:25:17;5.60;99.90
16635;DHT22;8431;52.458;9.998;2023-03-01T13:27:45;5.70;99.90
16635;DHT22;8431;52.458;9.998;2023-03-01T13:30:41;5.80;99.90
16635;DHT22;8431;52.458;9.998;2023-03-01T13:36:52;5.70;99.90
16635;DHT22;8431;52.458;9.998;2023-03-01T13:39:28;5.70;99.90
16635;DHT22;8431;52.458;9.998;2023-03-01T13:41:59;5.80;99.90
16635;DHT22;8431;52.458;9.998;2023-03-01T13:44:30;5.70;99.90
16635;DHT22;8431;52.458;9.998;2023-03-01T13:47:03;5.70;99.90
16635;DHT22;8431;52.458;9.998;2023-03-01T13:49:41;5.70;99.90
16635;DHT22;8431;52.458;9.998;2023-03-01T13:52:32;5.80;99.90
16635;DHT22;8431;52.458;9.998;2023-03-01T13:55:03;5.90;99.90
16635;DHT22;8431;52.458;9.998;2023-03-01T13:57:35;6.00;99.90
16635;DHT22;8431;52.458;9.998;2023-03-01T14:00:06;6.00;99.90
16635;DHT22;8431;52.458;9.998;2023-03-01T14:02:33;5.90;99.90
16635;DHT22;8431;52.458;9.998;2023-03-01T14:05:01;5.80;99.90
16635;DHT22;8431;52.458;9.998;2023-03-01T14:07:28;5.60;99.90
16635;DHT22;8431;52.458;9.998;2023-03-01T14:09:58;5.50;99.90
16635;DHT22;8431;52.458;9.998;2023-03-01T14:12:35;5.70;99.90
16635;DHT22;8431;52.458;9.998;2023-03-01T14:15:09;5.80;99.90
16635;DHT22;8431;52.458;9.998;2023-03-01T14:17:52;5.70;99.90
16635;DHT22;8431;52.458;9.998;2023-03-01T14:20:23;5.60;99.90
16635;DHT22;8431;52.458;9.998;2023-03-01T14:22:52;5.60;99.90
16635;DHT22;8431;52.458;9.998;2023-03-01T14:25:28;5.70;99.90
16635;DHT22;8431;52.458;9.998;2023-03-01T14:28:03;6.00;99.90
16635;DHT22;8431;52.458;9.998;2023-03-01T14:30:34;6.10;99.90
16635;DHT22;8431;52.458;9.998;2023-03-01T14:33:03;6.10;99.90
16635;DHT22;8431;52.458;9.998;2023-03-01T14:35:34;6.10;99.90
16635;DHT22;8431;52.458;9.998;2023-03-01T14:38:02;6.10;99.90
16635;DHT22;8431;52.458;9.998;2023-03-01T14:40:37;6.00;99.90
16635;DHT22;8431;52.458;9.998;2023-03-01T14:43:11;5.90;99.90
16635;DHT22;8431;52.458;9.998;2023-03-01T14:45:38;5.80;99.90
16635;DHT22;8431;52.458;9.998;2023-03-01T14:48:07;5.70;99.90
16635;DHT22;8431;52.458;9.998;2023-03-01T14:50:35;5.60;99.90
16635;DHT22;8431;52.458;9.998;2023-03-01T14:53:11;5.50;99.90
16635;DHT22;8431;52.458;9.998;2023-03-01T14:55:45;5.70;99.90
16635;DHT22;8431;52.458;9.998;2023-03-01T14:58:20;6.00;99.90
16635;DHT22;8431;52.458;9.998;2023-03-01T15:00:50;6.10;99.90
16635;DHT22;8431;52.458;9.998;2023-03-01T15:03:26;6.00;99.90
16635;DHT22;8431;52.458;9.998;2023-03-01T15:05:55;6.00;99.90
16635;DHT22;8431;52.458;9.998;2023-03-01T15:08:24;6.00;99.90
16635;DHT22;8431;52.458;9.998;2023-03-01T15:11:00;6.00;99.90
16635;DHT22;8431;52.458;9.998;2023-03-01T15:13:32;5.80;99.90
16635;DHT22;8431;52.458;9.998;2023-03-01T15:16:08;5.80;99.90
16635;DHT22;8431;52.458;9.998;2023-03-01T15:18:36;5.80;99.90
16635;DHT22;8431;52.458;9.998;2023-03-01T15:21:13;6.00;99.90
16635;DHT22;8431;52.458;9.998;2023-03-01T15:23:41;5.90;99.90
16635;DHT22;8431;52.458;9.998;2023-03-01T15:26:23;5.80;99.90
16635;DHT22;8431;52.458;9.998;2023-03-01T15:28:54;5.70;99.90
16635;DHT22;8431;52.458;9.998;2023-03-01T15:31:28;5.70;99.90
16635;DHT22;8431;52.458;9.998;2023-03-01T15:34:22;5.70;99.90
16635;DHT22;8431;52.458;9.998;2023-03-01T15:36:50;5.70;99.90
16635;DHT22;8431;52.458;9.998;2023-03-01T15:39:38;5.70;99.90
16635;DHT22;8431;52.458;9.998;2023-03-01T15:42:10;5.70;99.90
16635;DHT22;8431;52.458;9.998;2023-03-01T15:44:40;5.60;99.90
16635;DHT22;8431;52.458;9.998;2023-03-01T15:47:25;5.60;99.90
16635;DHT22;8431;52.458;9.998;2023-03-01T15:49:54;5.70;99.90
16635;DHT22;8431;52.458;9.998;2023-03-01T15:52:24;5.70;99.90
16635;DHT22;8431;52.458;9.998;2023-03-01T15:54:55;5.70;99.90
16635;DHT22;8431;52.458;9.998;2023-03-01T15:57:22;5.70;99.90
16635;DHT22;8431;52.458;9.998;2023-03-01T16:00:04;5.70;99.90
16635;DHT22;8431;52.458;9.998;2023-03-01T16:02:37;5.60;99.90
16635;DHT22;8431;52.458;9.998;2023-03-01T16:05:05;5.40;99.90
16635;DHT22;8431;52.458;9.998;2023-03-01T16:07:34;5.30;99.90
16635;DHT22;8431;52.458;9.998;2023-03-01T16:10:05;5.40;99.90
16635;DHT22;8431;52.458;9.998;2023-03-01T16:12:32;5.30;99.90
16635;DHT22;8431;52.458;9.998;2023-03-01T16:14:59;5.20;99.90
16635;DHT22;8431;52.458;9.998;2023-03-01T16:17:28;5.10;99.90
16635;DHT22;8431;52.458;9.998;2023-03-01T16:19:55;5.10;99.90
16635;DHT22;8431;52.458;9.998;2023-03-01T16:22:22;5.20;99.90
16635;DHT22;8431;52.458;9.998;2023-03-01T16:24:50;5.10;99.90
16635;DHT22;8431;52.458;9.998;2023-03-01T16:27:17;4.90;99.90
16635;DHT22;8431;52.458;9.998;2023-03-01T16:29:46;4.70;99.90
16635;DHT22;8431;52.458;9.998;2023-03-01T16:32:13;4.70;99.90